Time;durP1;ratioP1;P1;durP2;ratioP2;P2;SDS_P1;SDS_P2;PMS_P1;PMS_P2;Temp;Humidity;BMP_temperature;BMP_pressure;BME280_temperature;BME280_humidity;BME280_pressure;Samples;Min_cycle;Max_cycle;Signal;HPM_P1;HPM_P2
2021/07/27 00:00:20;;;;;;;28.27;25.67;;;17.10;99.90;;;;;;5065985;28;20456;-67
2021/07/27 00:02:47;;;;;;;28.63;26.13;;;17.10;99.90;;;;;;5060523;28;20479;-68
2021/07/27 00:05:15;;;;;;;28.23;25.70;;;17.10;99.90;;;;;;5063699;28;20455;-68
2021/07/27 00:07:41;;;;;;;30.07;27.23;;;17.20;99.90;;;;;;5061765;28;20497;-68
2021/07/27 00:10:11;;;;;;;27.10;24.80;;;17.20;99.90;;;;;;5065466;28;20462;-68
2021/07/27 00:12:39;;;;;;;28.30;25.50;;;17.20;99.90;;;;;;5062671;28;20451;-68
2021/07/27 00:15:06;;;;;;;30.43;25.70;;;17.10;99.90;;;;;;5068500;28;20458;-70
2021/07/27 00:17:33;;;;;;;32.63;27.07;;;17.10;99.90;;;;;;5062137;28;20460;-68
2021/07/27 00:20:01;;;;;;;29.47;26.70;;;17.10;99.90;;;;;;5067540;28;20469;-67
2021/07/27 00:22:29;;;;;;;29.70;27.00;;;17.00;99.90;;;;;;5065494;28;20459;-67
2021/07/27 00:24:58;;;;;;;30.07;27.10;;;17.00;99.90;;;;;;5065960;28;20459;-68
2021/07/27 00:27:25;;;;;;;30.90;28.17;;;17.00;99.90;;;;;;5060062;28;20485;-68
2021/07/27 00:29:52;;;;;;;29.60;26.70;;;17.00;99.90;;;;;;5065465;28;20467;-70
2021/07/27 00:32:19;;;;;;;30.70;27.70;;;16.90;99.90;;;;;;5059663;28;20462;-67
2021/07/27 00:34:46;;;;;;;31.20;28.00;;;16.90;99.90;;;;;;5060258;28;20491;-67
2021/07/27 00:37:17;;;;;;;30.77;27.63;;;16.90;99.90;;;;;;5065780;28;20489;-68
2021/07/27 00:39:45;;;;;;;36.37;29.57;;;16.90;99.90;;;;;;5067941;28;20997;-68
2021/07/27 00:42:14;;;;;;;31.13;28.13;;;16.90;99.90;;;;;;5058532;28;20802;-68
2021/07/27 00:44:42;;;;;;;33.63;28.43;;;16.90;99.90;;;;;;5060405;28;20451;-68
2021/07/27 00:47:09;;;;;;;32.03;28.73;;;16.90;99.90;;;;;;5065819;28;20902;-68
2021/07/27 00:49:36;;;;;;;33.47;28.47;;;16.90;99.90;;;;;;5064282;28;20467;-68
2021/07/27 00:52:04;;;;;;;34.27;30.80;;;16.90;99.90;;;;;;5058479;28;20464;-68
2021/07/27 00:54:31;;;;;;;35.13;31.13;;;16.90;99.90;;;;;;5067335;28;20960;-69
2021/07/27 00:57:00;;;;;;;34.20;30.90;;;16.90;99.90;;;;;;5065097;28;20542;-67
2021/07/27 00:59:28;;;;;;;34.40;30.77;;;16.90;99.90;;;;;;5057922;28;20986;-69
2021/07/27 01:01:56;;;;;;;34.07;30.37;;;16.80;99.90;;;;;;5057538;28;20636;-70
2021/07/27 01:04:23;;;;;;;39.97;30.77;;;16.80;99.90;;;;;;5066176;28;20469;-68
2021/07/27 01:06:51;;;;;;;33.30;29.77;;;16.80;99.90;;;;;;5060028;28;20935;-68
2021/07/27 01:09:18;;;;;;;39.67;31.47;;;16.80;99.90;;;;;;5067940;28;20463;-68
2021/07/27 01:11:46;;;;;;;35.50;31.70;;;16.80;99.90;;;;;;5060170;28;20571;-68
2021/07/27 01:14:17;;;;;;;40.37;33.17;;;16.80;99.90;;;;;;5061248;28;20470;-67
2021/07/27 01:16:44;;;;;;;37.97;31.83;;;16.70;99.90;;;;;;5063039;28;20490;-69
2021/07/27 01:19:25;;;;;;;38.47;33.30;;;16.70;99.90;;;;;;5063933;28;20825;-68
2021/07/27 01:39:02;;;;;;;35.50;31.83;;;16.60;99.90;;;;;;5061216;28;20482;-68
2021/07/27 01:44:13;;;;;;;41.57;34.13;;;16.70;99.90;;;;;;5056872;28;20569;-68
2021/07/27 01:46:40;;;;;;;47.40;35.70;;;16.70;99.90;;;;;;5062776;28;20468;-68
2021/07/27 01:49:08;;;;;;;41.73;34.23;;;16.70;99.90;;;;;;5063504;28;20463;-68
2021/07/27 01:51:44;;;;;;;40.20;34.87;;;16.80;99.90;;;;;;5058322;28;20463;-68
2021/07/27 01:54:16;;;;;;;44.83;36.03;;;16.80;99.90;;;;;;5056350;28;20529;-67
2021/07/27 01:56:44;;;;;;;44.37;36.67;;;16.80;99.90;;;;;;5065658;28;20517;-70
2021/07/27 01:59:11;;;;;;;47.23;39.17;;;16.70;99.90;;;;;;5058771;28;20532;-68
2021/07/27 02:01:40;;;;;;;44.70;37.53;;;16.80;99.90;;;;;;5063521;28;20463;-68
2021/07/27 02:04:06;;;;;;;46.33;39.17;;;16.70;99.90;;;;;;5063433;28;20479;-68
2021/07/27 02:06:33;;;;;;;49.70;40.27;;;16.70;99.90;;;;;;5062503;28;20614;-69
2021/07/27 02:09:05;;;;;;;50.00;39.10;;;16.70;99.90;;;;;;5063593;28;20581;-68
2021/07/27 02:11:40;;;;;;;55.80;38.53;;;16.70;99.90;;;;;;5061056;28;20451;-67
2021/07/27 02:14:12;;;;;;;62.90;40.97;;;16.70;99.90;;;;;;5063507;28;20541;-68
2021/07/27 02:16:39;;;;;;;52.00;39.20;;;16.70;99.90;;;;;;5055759;28;20467;-69
2021/07/27 02:19:06;;;;;;;50.70;41.17;;;16.70;99.90;;;;;;5058396;28;20455;-68
2021/07/27 02:21:35;;;;;;;62.73;43.03;;;16.60;99.90;;;;;;5062999;28;20979;-69
2021/07/27 02:24:02;;;;;;;42.73;38.10;;;16.60;99.90;;;;;;5063925;28;20466;-68
2021/07/27 02:26:31;;;;;;;55.57;39.90;;;16.50;99.90;;;;;;5060102;28;20462;-67
2021/07/27 02:29:01;;;;;;;51.20;41.57;;;16.40;99.90;;;;;;5064783;28;20493;-69
2021/07/27 02:31:32;;;;;;;56.93;42.70;;;16.50;99.90;;;;;;5058009;28;20478;-68
2021/07/27 02:33:59;;;;;;;51.70;43.77;;;16.50;99.90;;;;;;5057271;28;20469;-69
2021/07/27 02:36:26;;;;;;;51.50;42.77;;;16.50;99.90;;;;;;5063610;28;20887;-67
2021/07/27 02:38:53;;;;;;;63.13;45.63;;;16.50;99.90;;;;;;5063039;28;20551;-67
2021/07/27 02:41:33;;;;;;;58.17;43.77;;;16.40;99.90;;;;;;5061840;28;20474;-67
2021/07/27 02:44:02;;;;;;;54.40;45.03;;;16.40;99.90;;;;;;5056079;28;20488;-68
2021/07/27 02:46:29;;;;;;;54.73;44.87;;;16.40;99.90;;;;;;5056844;28;20513;-67
2021/07/27 02:49:03;;;;;;;57.17;43.53;;;16.40;99.90;;;;;;5063167;28;20498;-68
2021/07/27 02:51:31;;;;;;;65.97;45.30;;;16.20;99.90;;;;;;5062839;28;20967;-69
2021/07/27 02:53:58;;;;;;;63.00;46.47;;;16.20;99.90;;;;;;5061845;28;20463;-68
2021/07/27 02:56:26;;;;;;;64.17;46.07;;;16.20;99.90;;;;;;5059925;28;21009;-68
2021/07/27 02:58:53;;;;;;;72.10;43.73;;;16.20;99.90;;;;;;5060973;28;20826;-67
2021/07/27 03:01:21;;;;;;;60.20;47.00;;;16.20;99.90;;;;;;5063235;28;20965;-69
2021/07/27 03:03:51;;;;;;;65.60;45.60;;;16.10;99.90;;;;;;5063541;28;20950;-68
2021/07/27 03:06:19;;;;;;;58.77;45.13;;;16.10;99.90;;;;;;5057791;28;20460;-68
2021/07/27 03:08:50;;;;;;;70.80;45.67;;;16.00;99.90;;;;;;5059009;28;20492;-68
2021/07/27 03:11:19;;;;;;;62.10;44.37;;;16.00;99.90;;;;;;5056170;28;20825;-68
2021/07/27 03:13:47;;;;;;;62.60;45.50;;;15.90;99.90;;;;;;5063496;28;20466;-68
2021/07/27 03:16:18;;;;;;;60.50;44.00;;;15.90;99.90;;;;;;5057798;28;20883;-68
2021/07/27 03:18:49;;;;;;;61.97;44.67;;;15.90;99.90;;;;;;5061493;28;20459;-70
2021/07/27 03:21:18;;;;;;;69.43;45.20;;;15.80;99.90;;;;;;5060330;28;20467;-68
2021/07/27 03:23:45;;;;;;;60.27;44.37;;;15.80;99.90;;;;;;5057973;28;20832;-68
2021/07/27 03:26:12;;;;;;;76.30;46.20;;;15.70;99.90;;;;;;5051330;28;20546;-68
2021/07/27 03:28:40;;;;;;;62.70;43.63;;;15.70;99.90;;;;;;5061934;28;20514;-67
2021/07/27 03:31:07;;;;;;;57.80;44.03;;;15.70;99.90;;;;;;5060501;28;20546;-68
2021/07/27 03:33:34;;;;;;;63.90;45.00;;;15.70;99.90;;;;;;5057398;28;20463;-69
2021/07/27 03:36:02;;;;;;;66.20;45.90;;;15.70;99.90;;;;;;5058723;28;20471;-68
2021/07/27 03:38:29;;;;;;;62.57;43.80;;;15.60;99.90;;;;;;5063015;28;20466;-68
2021/07/27 03:41:04;;;;;;;62.90;45.23;;;15.60;99.90;;;;;;5060229;28;20452;-68
2021/07/27 03:43:31;;;;;;;52.40;44.10;;;15.60;99.90;;;;;;5059212;28;20573;-70
2021/07/27 03:45:59;;;;;;;72.27;41.43;;;15.60;99.90;;;;;;5061651;28;20463;-69
2021/07/27 03:48:26;;;;;;;57.70;42.70;;;15.60;99.90;;;;;;5062414;28;20486;-68
2021/07/27 03:50:53;;;;;;;63.63;41.63;;;15.50;99.90;;;;;;5060536;28;20470;-69
2021/07/27 03:53:21;;;;;;;60.07;42.87;;;15.50;99.90;;;;;;5061371;28;20465;-70
2021/07/27 03:55:48;;;;;;;47.63;37.77;;;15.50;99.90;;;;;;5065244;28;20455;-68
2021/07/27 03:58:16;;;;;;;55.77;41.37;;;15.50;99.90;;;;;;5060763;28;20470;-68
2021/07/27 04:00:43;;;;;;;55.53;39.23;;;15.50;99.90;;;;;;5059252;28;20457;-69
2021/07/27 04:03:10;;;;;;;55.13;43.50;;;15.50;99.90;;;;;;5062163;28;20455;-68
2021/07/27 04:05:37;;;;;;;65.00;44.03;;;15.50;99.90;;;;;;5056862;28;20460;-68
2021/07/27 04:08:04;;;;;;;52.93;42.40;;;15.60;99.90;;;;;;5062928;28;20501;-70
2021/07/27 04:10:33;;;;;;;54.33;40.30;;;15.60;99.90;;;;;;5064893;28;20945;-68
2021/07/27 04:13:00;;;;;;;51.40;40.87;;;15.70;99.90;;;;;;5062670;28;20462;-69
2021/07/27 04:15:42;;;;;;;51.97;40.03;;;15.70;99.90;;;;;;5059096;28;20459;-68
2021/07/27 04:18:09;;;;;;;55.83;41.47;;;15.70;99.90;;;;;;5055211;28;20463;-68
2021/07/27 04:20:36;;;;;;;51.00;40.03;;;15.80;99.90;;;;;;5063316;28;20467;-68
2021/07/27 04:23:04;;;;;;;52.30;40.37;;;15.80;99.90;;;;;;5060485;28;20471;-68
2021/07/27 04:25:33;;;;;;;47.60;39.50;;;15.90;99.90;;;;;;5057882;28;20466;-68
2021/07/27 04:28:00;;;;;;;53.23;41.60;;;15.90;99.90;;;;;;5061696;28;20483;-69
2021/07/27 04:30:27;;;;;;;46.33;41.33;;;16.00;99.90;;;;;;5056313;28;20459;-68
2021/07/27 04:32:54;;;;;;;53.97;40.17;;;16.10;99.90;;;;;;5064045;28;21260;-68
2021/07/27 04:35:21;;;;;;;52.33;39.73;;;16.20;99.90;;;;;;5064901;28;21221;-70
2021/07/27 04:37:50;;;;;;;55.53;40.63;;;16.20;99.90;;;;;;5063049;28;20456;-68
2021/07/27 04:40:18;;;;;;;54.63;38.90;;;16.20;99.90;;;;;;5064957;28;21031;-67
2021/07/27 04:42:46;;;;;;;45.53;38.47;;;16.20;99.90;;;;;;5058248;28;20483;-68
2021/07/27 04:45:13;;;;;;;52.10;37.47;;;16.30;99.90;;;;;;5066030;28;20459;-69
2021/07/27 04:47:40;;;;;;;44.73;37.57;;;16.40;99.90;;;;;;5064909;28;20522;-68
2021/07/27 04:50:09;;;;;;;50.93;39.33;;;16.50;99.90;;;;;;5066321;28;20465;-68
2021/07/27 04:52:37;;;;;;;51.53;39.03;;;16.50;99.90;;;;;;5059768;28;20467;-68
2021/07/27 04:55:05;;;;;;;46.67;38.13;;;16.50;99.90;;;;;;5062235;28;20520;-67
2021/07/27 04:57:32;;;;;;;53.40;39.57;;;16.60;99.90;;;;;;5062602;28;20452;-68
2021/07/27 05:00:01;;;;;;;44.93;36.80;;;16.70;99.90;;;;;;5059516;28;20466;-68
2021/07/27 05:02:28;;;;;;;51.33;39.23;;;16.80;99.90;;;;;;5054959;28;20464;-67
2021/07/27 05:04:55;;;;;;;41.13;37.20;;;16.90;99.90;;;;;;5063529;28;20471;-67
2021/07/27 05:07:21;;;;;;;44.80;39.93;;;17.10;99.90;;;;;;5063286;28;21270;-69
2021/07/27 05:09:48;;;;;;;45.90;37.93;;;17.10;99.90;;;;;;5061674;28;20522;-67
2021/07/27 05:12:16;;;;;;;44.63;37.90;;;17.10;99.90;;;;;;5064335;28;20953;-68
2021/07/27 05:14:43;;;;;;;49.73;38.23;;;17.20;99.90;;;;;;5065762;28;20455;-68
2021/07/27 05:17:12;;;;;;;44.00;37.20;;;17.20;99.90;;;;;;5058050;28;20460;-68
2021/07/27 05:19:50;;;;;;;53.37;36.30;;;17.20;99.90;;;;;;5075471;28;20473;-67
2021/07/27 05:22:17;;;;;;;48.90;37.70;;;17.20;99.90;;;;;;5064157;28;20466;-68
2021/07/27 05:24:44;;;;;;;42.70;37.47;;;17.20;99.90;;;;;;5062656;28;20927;-70
2021/07/27 05:27:11;;;;;;;63.67;38.90;;;17.20;99.90;;;;;;5061411;28;20467;-67
2021/07/27 05:29:38;;;;;;;45.87;37.57;;;17.30;99.90;;;;;;5062838;28;20493;-68
2021/07/27 05:32:06;;;;;;;51.13;36.80;;;17.40;99.90;;;;;;5063906;28;20856;-68
2021/07/27 05:34:34;;;;;;;45.13;35.60;;;17.40;99.90;;;;;;5065660;28;20463;-68
2021/07/27 05:37:02;;;;;;;47.87;35.63;;;17.40;99.90;;;;;;5059320;28;20456;-68
2021/07/27 05:39:29;;;;;;;47.93;36.30;;;17.40;99.90;;;;;;5061509;28;20467;-68
2021/07/27 05:41:56;;;;;;;59.63;37.53;;;17.40;99.90;;;;;;5061709;28;20505;-68
2021/07/27 05:44:25;;;;;;;48.47;35.17;;;17.40;99.90;;;;;;5064351;28;20847;-68
2021/07/27 05:46:53;;;;;;;51.03;35.60;;;17.40;99.90;;;;;;5057111;28;20472;-72
2021/07/27 05:49:20;;;;;;;49.63;36.00;;;17.50;99.90;;;;;;5055743;28;20526;-69
2021/07/27 05:51:49;;;;;;;50.67;32.90;;;17.60;99.90;;;;;;5065869;28;20466;-72
2021/07/27 05:54:16;;;;;;;44.83;34.63;;;17.70;99.90;;;;;;5061625;28;20459;-70
2021/07/27 05:56:42;;;;;;;42.80;34.50;;;17.90;99.90;;;;;;5060657;28;20465;-70
2021/07/27 05:59:09;;;;;;;38.27;33.33;;;17.90;99.90;;;;;;5058498;28;20550;-69
2021/07/27 06:01:37;;;;;;;34.77;31.10;;;18.00;99.90;;;;;;5063295;28;20528;-71
2021/07/27 06:04:05;;;;;;;41.43;31.70;;;18.10;99.90;;;;;;5063627;28;20470;-68
2021/07/27 06:06:32;;;;;;;39.17;31.17;;;18.20;99.90;;;;;;5062109;28;20471;-67
2021/07/27 06:09:03;;;;;;;43.17;29.97;;;18.40;99.90;;;;;;5065693;28;20989;-70
2021/07/27 06:11:31;;;;;;;35.77;30.77;;;18.60;99.90;;;;;;5061291;28;20462;-70
2021/07/27 06:14:00;;;;;;;33.77;30.17;;;18.70;99.90;;;;;;5059717;28;20461;-71
2021/07/27 06:16:26;;;;;;;32.20;29.30;;;18.70;99.90;;;;;;5058816;28;20459;-69
2021/07/27 06:18:54;;;;;;;34.97;28.43;;;18.80;99.90;;;;;;5060766;28;20478;-69
2021/07/27 06:21:22;;;;;;;36.10;27.93;;;18.80;99.90;;;;;;5060762;28;20819;-70
2021/07/27 06:23:49;;;;;;;36.83;28.30;;;18.90;99.90;;;;;;5064752;28;20462;-71
2021/07/27 06:26:17;;;;;;;30.37;27.33;;;18.90;99.90;;;;;;5056910;28;20463;-70
2021/07/27 06:28:44;;;;;;;30.80;26.27;;;19.00;99.90;;;;;;5056370;28;20777;-70
2021/07/27 06:31:12;;;;;;;30.60;27.90;;;19.00;99.90;;;;;;5060792;28;20455;-70
2021/07/27 06:33:39;;;;;;;28.73;25.30;;;19.30;99.90;;;;;;5064712;28;20466;-71
2021/07/27 06:36:06;;;;;;;26.93;24.60;;;19.50;99.90;;;;;;5065026;28;20460;-70
2021/07/27 06:38:33;;;;;;;29.50;26.47;;;19.70;99.90;;;;;;5058124;28;20467;-69
2021/07/27 06:41:00;;;;;;;27.93;25.20;;;19.70;99.90;;;;;;5058688;28;20462;-69
2021/07/27 06:43:29;;;;;;;26.97;24.57;;;19.70;99.90;;;;;;5060621;28;20491;-69
2021/07/27 06:45:57;;;;;;;26.80;24.70;;;19.90;99.90;;;;;;5059521;28;20471;-67
2021/07/27 06:48:25;;;;;;;26.43;23.40;;;20.10;99.90;;;;;;5064624;28;20460;-70
2021/07/27 06:50:52;;;;;;;28.63;25.63;;;20.20;99.90;;;;;;5054872;28;20470;-68
2021/07/27 06:53:19;;;;;;;24.87;22.90;;;20.20;99.90;;;;;;5063892;28;20568;-68
2021/07/27 06:55:46;;;;;;;26.17;23.87;;;20.20;99.90;;;;;;5059047;28;20463;-67
2021/07/27 06:58:13;;;;;;;25.90;23.70;;;20.30;99.90;;;;;;5054949;28;20470;-67
2021/07/27 07:00:42;;;;;;;25.43;23.57;;;20.40;99.90;;;;;;5061534;28;21237;-68
2021/07/27 07:03:09;;;;;;;24.47;22.53;;;20.60;99.90;;;;;;5064312;28;20975;-67
2021/07/27 07:05:42;;;;;;;25.90;23.40;;;20.80;99.90;;;;;;5059688;28;20455;-67
2021/07/27 07:08:09;;;;;;;26.50;23.20;;;21.00;99.90;;;;;;5063532;28;20523;-68
2021/07/27 07:10:36;;;;;;;25.47;23.27;;;21.00;99.90;;;;;;5059809;28;20486;-67
2021/07/27 07:13:04;;;;;;;26.77;24.27;;;21.30;99.90;;;;;;5066788;28;20998;-68
2021/07/27 07:15:31;;;;;;;24.93;22.90;;;21.40;99.90;;;;;;5062689;28;20462;-68
2021/07/27 07:17:59;;;;;;;24.50;22.20;;;21.50;99.90;;;;;;5062890;28;20825;-68
2021/07/27 07:20:27;;;;;;;25.73;23.60;;;21.70;99.90;;;;;;5062419;28;20965;-67
2021/07/27 07:22:54;;;;;;;27.20;24.87;;;21.80;99.90;;;;;;5062603;28;20460;-67
2021/07/27 07:25:21;;;;;;;26.00;24.10;;;21.60;99.90;;;;;;5063571;28;20462;-67
2021/07/27 07:27:49;;;;;;;25.77;23.77;;;21.40;99.90;;;;;;5065007;28;20494;-67
2021/07/27 07:30:16;;;;;;;27.50;25.00;;;21.50;99.90;;;;;;5066684;28;21036;-66
2021/07/27 07:32:43;;;;;;;27.43;25.10;;;21.50;99.90;;;;;;5054831;28;20462;-69
2021/07/27 07:35:12;;;;;;;27.70;24.27;;;21.60;99.90;;;;;;5061205;28;20490;-67
2021/07/27 07:37:39;;;;;;;25.00;23.00;;;21.80;99.90;;;;;;5059970;28;20463;-69
2021/07/27 07:40:07;;;;;;;26.57;24.43;;;21.90;99.90;;;;;;5067497;28;20470;-67
2021/07/27 07:42:34;;;;;;;25.90;23.87;;;21.80;99.90;;;;;;5058073;28;20483;-68
2021/07/27 07:45:01;;;;;;;25.50;23.60;;;21.80;99.90;;;;;;5063562;28;20643;-68
2021/07/27 07:47:29;;;;;;;25.70;23.60;;;21.90;99.90;;;;;;5061203;28;20462;-68
2021/07/27 07:49:59;;;;;;;25.70;23.77;;;22.20;99.90;;;;;;5062099;28;20497;-69
2021/07/27 07:52:27;;;;;;;25.20;23.33;;;22.10;99.90;;;;;;5059201;28;20613;-68
2021/07/27 07:54:54;;;;;;;26.70;24.50;;;22.00;99.90;;;;;;5060165;28;20467;-69
2021/07/27 07:57:21;;;;;;;26.97;24.90;;;22.20;99.90;;;;;;5057416;28;20470;-68
2021/07/27 07:59:49;;;;;;;27.37;25.10;;;22.20;99.90;;;;;;5061074;28;20516;-70
2021/07/27 08:02:17;;;;;;;26.07;23.90;;;22.40;99.90;;;;;;5060132;28;20459;-70
2021/07/27 08:04:44;;;;;;;25.80;23.70;;;22.70;99.90;;;;;;5060731;28;20459;-69
2021/07/27 08:07:12;;;;;;;27.07;24.97;;;22.90;99.90;;;;;;5055870;28;20574;-68
2021/07/27 08:09:41;;;;;;;25.00;22.73;;;23.20;99.90;;;;;;5057614;28;21110;-70
2021/07/27 08:12:08;;;;;;;24.93;22.90;;;23.30;99.90;;;;;;5058579;28;20470;-69
2021/07/27 08:14:35;;;;;;;25.47;23.43;;;23.30;99.90;;;;;;5057818;28;20464;-69
2021/07/27 08:17:02;;;;;;;27.47;25.20;;;23.60;99.90;;;;;;5055617;28;20530;-69
2021/07/27 08:19:30;;;;;;;24.27;22.67;;;23.60;99.90;;;;;;5053690;28;20477;-71
2021/07/27 08:21:58;;;;;;;24.90;23.10;;;23.70;99.90;;;;;;5048543;28;21028;-71
2021/07/27 08:24:25;;;;;;;25.30;23.07;;;23.80;99.90;;;;;;5059732;28;20549;-68
2021/07/27 08:26:54;;;;;;;24.73;22.90;;;23.70;99.90;;;;;;5060663;28;20450;-71
2021/07/27 08:29:21;;;;;;;25.20;23.00;;;24.00;99.90;;;;;;5055041;28;20663;-71
2021/07/27 08:31:49;;;;;;;24.57;22.90;;;24.10;99.90;;;;;;5056311;28;20467;-68
2021/07/27 08:34:17;;;;;;;24.50;22.57;;;24.30;99.90;;;;;;5058010;28;20458;-68
2021/07/27 08:36:45;;;;;;;24.37;22.37;;;24.50;99.90;;;;;;5061176;28;20466;-68
2021/07/27 08:39:12;;;;;;;24.20;22.40;;;24.70;99.90;;;;;;5048411;28;20550;-68
2021/07/27 08:41:40;;;;;;;24.57;22.80;;;25.30;99.90;;;;;;5057923;28;20874;-68
2021/07/27 08:44:16;;;;;;;25.27;22.83;;;25.60;99.90;;;;;;5058264;28;20491;-68
2021/07/27 08:46:44;;;;;;;23.50;21.70;;;25.90;99.90;;;;;;5056959;28;20466;-68
2021/07/27 08:49:12;;;;;;;25.60;22.87;;;26.10;99.90;;;;;;5057195;28;20455;-72
2021/07/27 08:51:40;;;;;;;25.50;23.47;;;26.50;99.90;;;;;;5057123;28;20463;-72
2021/07/27 08:54:09;;;;;;;23.83;21.93;;;26.50;99.90;;;;;;5056096;28;22563;-69
2021/07/27 08:56:44;;;;;;;23.60;22.10;;;26.80;99.90;;;;;;5056296;28;20474;-68
2021/07/27 08:59:12;;;;;;;24.03;22.30;;;27.00;99.90;;;;;;5056331;28;20834;-71
2021/07/27 09:01:39;;;;;;;23.57;21.80;;;26.80;99.90;;;;;;5060771;28;20469;-72
2021/07/27 09:04:06;;;;;;;23.27;21.67;;;26.40;99.90;;;;;;5062884;28;20955;-68
2021/07/27 09:06:33;;;;;;;24.10;22.43;;;25.70;99.90;;;;;;5059769;28;20835;-68
2021/07/27 09:09:07;;;;;;;23.80;22.00;;;25.60;99.90;;;;;;5061208;28;20474;-68
2021/07/27 17:18:39;;;;;;;17.30;16.30;;;18.50;99.90;;;;;;4952978;28;20608;-68
2021/07/27 17:21:07;;;;;;;17.00;16.10;;;18.50;99.90;;;;;;5015770;28;20831;-71
2021/07/27 17:23:33;;;;;;;17.10;16.10;;;18.50;99.90;;;;;;5048150;28;20459;-68
2021/07/27 17:26:01;;;;;;;17.23;16.23;;;18.40;99.90;;;;;;5054201;28;20462;-69
2021/07/27 17:28:28;;;;;;;17.53;16.53;;;18.50;99.90;;;;;;5054147;28;20464;-68
2021/07/27 17:30:55;;;;;;;18.00;16.90;;;18.40;99.90;;;;;;5054870;28;20467;-67
2021/07/27 17:33:22;;;;;;;18.93;17.83;;;18.30;99.90;;;;;;5055335;28;20470;-69
2021/07/27 17:35:50;;;;;;;22.03;20.63;;;18.40;99.90;;;;;;5051039;28;20448;-70
2021/07/27 17:38:17;;;;;;;17.20;16.20;;;18.40;99.90;;;;;;5051309;28;20487;-68
2021/07/27 17:40:44;;;;;;;21.17;19.77;;;18.50;99.90;;;;;;5051980;28;20451;-69
2021/07/27 17:43:11;;;;;;;18.00;16.90;;;18.50;99.90;;;;;;5057364;28;21123;-72
2021/07/27 17:45:38;;;;;;;18.27;17.17;;;18.60;99.90;;;;;;5058119;28;20937;-70
2021/07/27 17:48:07;;;;;;;18.40;17.30;;;18.70;99.90;;;;;;5054901;28;20466;-68
2021/07/27 17:50:34;;;;;;;18.53;17.43;;;18.70;99.90;;;;;;5055953;28;20455;-68
2021/07/27 17:53:03;;;;;;;17.87;16.77;;;18.70;99.90;;;;;;5052240;28;20463;-68
2021/07/27 17:55:30;;;;;;;18.40;17.30;;;18.80;99.90;;;;;;5059522;28;20459;-70
2021/07/27 17:57:57;;;;;;;18.40;17.30;;;18.80;99.90;;;;;;5048737;28;20498;-69
2021/07/27 18:00:24;;;;;;;17.30;16.30;;;18.70;99.90;;;;;;5054036;28;20471;-68
2021/07/27 18:02:51;;;;;;;18.70;17.60;;;18.90;99.90;;;;;;5056258;28;20451;-68
2021/07/27 18:05:18;;;;;;;18.60;17.50;;;18.80;99.90;;;;;;5051479;28;20570;-68
2021/07/27 18:07:45;;;;;;;18.03;17.00;;;18.90;99.90;;;;;;5052189;28;20455;-70
2021/07/27 18:10:14;;;;;;;18.80;17.70;;;19.00;99.90;;;;;;5057286;28;20490;-68
2021/07/27 18:12:41;;;;;;;18.60;17.50;;;18.90;99.90;;;;;;5047632;28;20456;-67
2021/07/27 18:15:08;;;;;;;18.83;17.73;;;18.90;99.90;;;;;;5051254;28;20467;-68
2021/07/27 18:17:35;;;;;;;18.77;17.77;;;18.90;99.90;;;;;;5055337;28;20479;-66
2021/07/27 18:20:03;;;;;;;18.47;17.47;;;19.00;99.90;;;;;;5056456;28;20481;-69
2021/07/27 18:22:30;;;;;;;20.03;19.03;;;19.00;99.90;;;;;;5056235;28;20467;-68
2021/07/27 18:24:57;;;;;;;17.63;16.73;;;19.00;99.90;;;;;;5059672;28;20462;-71
2021/07/27 18:27:25;;;;;;;17.70;16.80;;;19.10;99.90;;;;;;5054558;28;20459;-68
2021/07/27 18:29:52;;;;;;;17.50;16.60;;;19.10;99.90;;;;;;5051702;28;20451;-71
2021/07/27 18:32:19;;;;;;;17.27;16.37;;;19.20;99.90;;;;;;5057688;28;20462;-68
2021/07/27 18:34:46;;;;;;;16.70;15.80;;;19.10;99.90;;;;;;5050174;28;20458;-68
2021/07/27 18:37:13;;;;;;;16.50;15.60;;;19.10;99.90;;;;;;5048428;28;20471;-68
2021/07/27 18:39:40;;;;;;;16.00;15.20;;;19.00;99.90;;;;;;5059843;28;20483;-68
2021/07/27 18:42:09;;;;;;;15.90;15.10;;;18.80;99.90;;;;;;5062906;28;20986;-70
2021/07/27 18:44:37;;;;;;;15.90;15.10;;;18.70;99.90;;;;;;5062303;28;20820;-68
2021/07/27 18:47:05;;;;;;;16.07;15.27;;;18.60;99.90;;;;;;5056700;28;20462;-69
2021/07/27 18:49:32;;;;;;;15.70;14.90;;;18.50;99.90;;;;;;5057809;28;20462;-71
2021/07/27 18:51:59;;;;;;;16.00;15.20;;;18.40;99.90;;;;;;5059154;28;20744;-69
2021/07/27 18:54:30;;;;;;;16.00;15.20;;;18.20;99.90;;;;;;5056407;28;20489;-67
2021/07/27 18:56:57;;;;;;;23.63;21.53;;;18.10;99.90;;;;;;5057476;28;20922;-67
2021/07/27 18:59:24;;;;;;;23.23;20.60;;;18.00;99.90;;;;;;5059928;28;20482;-67
2021/07/27 19:01:53;;;;;;;24.90;21.03;;;17.90;99.90;;;;;;5057971;28;20480;-67
2021/07/27 19:04:20;;;;;;;23.20;21.30;;;17.90;99.90;;;;;;5054136;28;20467;-67
2021/07/27 19:06:47;;;;;;;23.33;21.50;;;17.80;99.90;;;;;;5058558;28;21358;-70
2021/07/27 19:09:14;;;;;;;23.23;20.97;;;17.70;99.90;;;;;;5049882;28;20474;-69
2021/07/27 19:11:41;;;;;;;22.40;20.30;;;17.70;99.90;;;;;;5056758;28;21023;-69
2021/07/27 19:14:08;;;;;;;22.67;20.87;;;17.70;99.90;;;;;;5053450;28;20953;-68
2021/07/27 19:16:35;;;;;;;22.93;20.70;;;17.60;99.90;;;;;;5054086;28;20501;-69
2021/07/27 19:19:03;;;;;;;23.00;20.97;;;17.60;99.90;;;;;;5054482;28;20482;-67
2021/07/27 19:21:30;;;;;;;21.80;19.90;;;17.60;99.90;;;;;;5057565;28;20454;-67
2021/07/27 19:23:57;;;;;;;21.53;19.73;;;17.50;99.90;;;;;;5053400;28;20466;-67
2021/07/27 19:26:24;;;;;;;21.00;19.13;;;17.40;99.90;;;;;;5056789;28;20543;-67
2021/07/27 19:28:51;;;;;;;21.90;20.30;;;17.40;99.90;;;;;;5056717;28;20467;-68
2021/07/27 19:31:18;;;;;;;21.43;19.93;;;17.30;99.90;;;;;;5063241;28;20931;-67
2021/07/27 19:33:45;;;;;;;21.87;19.70;;;17.30;99.90;;;;;;5061817;28;20486;-67
2021/07/27 19:36:13;;;;;;;26.20;20.67;;;17.20;99.90;;;;;;5053605;28;20485;-69
2021/07/27 19:38:42;;;;;;;21.57;19.70;;;17.20;99.90;;;;;;5058533;28;20480;-67
2021/07/27 19:41:11;;;;;;;21.80;19.67;;;17.20;99.90;;;;;;5056995;28;20820;-70
2021/07/27 19:43:41;;;;;;;21.03;19.43;;;17.20;99.90;;;;;;5054665;28;20503;-71
2021/07/27 19:49:44;;;;;;;20.77;18.50;;;17.20;99.90;;;;;;5054534;28;20626;-68
2021/07/27 19:51:51;;;;;;;22.20;20.17;;;17.20;99.90;;;;;;5053676;28;20997;-69
2021/07/27 19:54:19;;;;;;;20.27;18.77;;;17.20;99.90;;;;;;5055103;28;20506;-70
2021/07/27 19:56:46;;;;;;;21.20;19.50;;;17.30;99.90;;;;;;5058771;28;20455;-68
2021/07/27 19:59:14;;;;;;;20.93;19.13;;;17.30;99.90;;;;;;5055561;28;20578;-69
2021/07/27 20:01:41;;;;;;;21.33;19.53;;;17.30;99.90;;;;;;5056424;28;20455;-69
2021/07/27 20:04:08;;;;;;;21.17;19.50;;;17.30;99.90;;;;;;5058167;28;21155;-71
2021/07/27 20:06:35;;;;;;;21.97;20.00;;;17.30;99.90;;;;;;5063524;28;20946;-72
2021/07/27 20:09:03;;;;;;;21.80;20.03;;;17.30;99.90;;;;;;5057457;28;20520;-70
2021/07/27 20:11:30;;;;;;;20.63;18.67;;;17.30;99.90;;;;;;5055239;28;20467;-68
2021/07/27 20:13:57;;;;;;;23.00;19.57;;;17.30;99.90;;;;;;5054249;28;20456;-69
2021/07/27 20:16:24;;;;;;;20.80;19.00;;;17.30;99.90;;;;;;5055710;28;20483;-69
2021/07/27 20:18:50;;;;;;;25.43;19.90;;;17.20;99.90;;;;;;5068357;28;20952;-69
2021/07/27 20:21:17;;;;;;;21.53;19.60;;;17.20;99.90;;;;;;5055527;28;20530;-69
2021/07/27 20:23:44;;;;;;;22.37;20.30;;;17.20;99.90;;;;;;5058750;28;20876;-69
2021/07/27 20:26:14;;;;;;;22.30;20.40;;;17.20;99.90;;;;;;5051905;28;20456;-72
2021/07/27 20:28:42;;;;;;;25.90;20.87;;;17.10;99.90;;;;;;5056125;28;20464;-69
2021/07/27 20:31:10;;;;;;;22.00;20.00;;;17.10;99.90;;;;;;5060133;28;20459;-70
2021/07/27 20:33:38;;;;;;;22.13;19.93;;;17.10;99.90;;;;;;5056547;28;20844;-69
2021/07/27 20:36:06;;;;;;;22.50;20.50;;;17.10;99.90;;;;;;5060982;28;20459;-69
2021/07/27 20:38:33;;;;;;;22.60;20.50;;;17.10;99.90;;;;;;5057312;28;20451;-70
2021/07/27 20:41:02;;;;;;;22.87;20.50;;;17.00;99.90;;;;;;5057807;28;20469;-69
2021/07/27 20:43:30;;;;;;;25.13;20.40;;;17.00;99.90;;;;;;5057782;28;20482;-68
2021/07/27 20:45:56;;;;;;;28.63;21.57;;;16.90;99.90;;;;;;5048467;28;20548;-69
2021/07/27 20:48:24;;;;;;;22.97;20.80;;;16.90;99.90;;;;;;5049350;28;20782;-70
2021/07/27 20:50:51;;;;;;;23.57;21.47;;;16.90;99.90;;;;;;5060186;28;20474;-68
2021/07/27 20:53:24;;;;;;;24.20;21.70;;;16.80;99.90;;;;;;5057704;28;20471;-71
2021/07/27 20:55:53;;;;;;;31.77;21.93;;;16.80;99.90;;;;;;5061088;28;20478;-69
2021/07/27 20:58:19;;;;;;;28.50;20.87;;;16.80;99.90;;;;;;5056190;28;20467;-69
2021/07/27 21:00:49;;;;;;;23.13;21.13;;;16.80;99.90;;;;;;5057122;28;20496;-70